Terminal Aerodrome Forecast
Issued by NWS

Home | Current Version | Previous Version | Text Only | Print | Product List | Glossary On
Versions: 1 2 3 4 5 6 7 8 9 10 11 12 13 14
000
FTUS44 KBMX 180828 AAA
TAFTOI
TAF AMD
KTOI 180828Z 1808/1906 00000KT 1SM BR OVC002
     FM181500 04003KT 4SM BR SCT003 OVC009
     FM181900 28003KT 6SM -DZ BR SCT003 SCT009 OVC012
     FM190100 00000KT 4SM BR OVC009=

USA.gov is the U.S. government's official web portal to all federal, state and local government web resources and services.